KADG/ADG METAR and TAF weather

Enter ICAO airport designator
Station Type Date Time Source
KADG METAR 2021/05/17 20:53 UTC NOAA

KADG 172053Z AUTO 21012KT 10SM BKN065 OVC080 23/09 A3022 RMK AO2 SLP234 T02280089 56005


Station Type Date Time Source
KADG Decoded METAR 2021/05/17 20:53 UTC NOAA

ADRIAN LENAWEE COUNTY AIRPORT, MI, United States (KADG) 41-52N 84-05W 241M
May 17, 2021 - 04:53 PM EDT / 2021.05.17 2053 UTC
Wind: from the SSW (210 degrees) at 14 MPH (12 KT):0
Visibility: 10 mile(s):0
Sky conditions: overcast
Temperature: 73.0 F (22.8 C)
Dew Point: 48.0 F (8.9 C)
Relative Humidity: 41%
Pressure (altimeter): 30.22 in. Hg (1023 hPa)
Pressure tendency: 0.01 inches (0.5 hPa) lower than three hours ago
ob: KADG 172053Z AUTO 21012KT 10SM BKN065 OVC080 23/09 A3022 RMK AO2 SLP234 T02280089 56005
cycle: 21

Station Type Date Time Source
KADG TAF UTC NOAA

Error!

Example: see airport list